Time;durP1;ratioP1;P1;durP2;ratioP2;P2;SDS_P1;SDS_P2;PMS_P1;PMS_P2;Temp;Humidity;BMP_temperature;BMP_pressure;BME280_temperature;BME280_humidity;BME280_pressure;Samples;Min_cycle;Max_cycle;Signal;HPM_P1;HPM_P2
2022/04/06 00:01:52;;;;;;;6.27;5.10;;;11.70;99.90;;;;;;5077019;28;20459;-89
2022/04/06 00:04:23;;;;;;;7.60;5.40;;;11.80;99.90;;;;;;5078209;28;20445;-88
2022/04/06 00:06:57;;;;;;;7.20;5.70;;;11.70;99.90;;;;;;5068703;28;20498;-89
2022/04/06 00:09:24;;;;;;;9.90;5.90;;;11.70;99.90;;;;;;5064456;28;20456;-87
2022/04/06 00:11:51;;;;;;;7.60;5.30;;;11.70;99.90;;;;;;5064782;28;20453;-86
2022/04/06 00:14:18;;;;;;;7.30;5.67;;;11.70;99.90;;;;;;5063420;28;20456;-89
2022/04/06 00:16:45;;;;;;;6.93;5.17;;;11.70;99.90;;;;;;5066911;28;20920;-87
2022/04/06 00:19:12;;;;;;;6.50;5.30;;;11.80;99.90;;;;;;5065571;28;20432;-87
2022/04/06 00:21:42;;;;;;;9.27;5.57;;;11.70;99.90;;;;;;5063677;28;20437;-87
2022/04/06 00:24:11;;;;;;;8.70;5.63;;;11.60;99.90;;;;;;5063607;28;20456;-86
2022/04/06 00:26:38;;;;;;;7.23;5.60;;;11.70;99.90;;;;;;5069182;28;20472;-87
2022/04/06 00:29:05;;;;;;;8.57;5.73;;;11.70;99.90;;;;;;5069189;28;21006;-88
2022/04/06 00:31:32;;;;;;;7.60;5.47;;;11.70;99.90;;;;;;5063893;28;20472;-88
2022/04/06 00:33:59;;;;;;;7.50;5.60;;;11.70;99.90;;;;;;5063441;28;20454;-88
2022/04/06 00:36:26;;;;;;;7.07;5.73;;;11.60;99.90;;;;;;5063869;28;20480;-88
2022/04/06 00:38:55;;;;;;;6.67;5.10;;;11.70;99.90;;;;;;5067359;28;20536;-88
2022/04/06 00:41:23;;;;;;;7.10;5.63;;;11.60;99.90;;;;;;5064126;28;20483;-88
2022/04/06 00:44:16;;;;;;;9.20;5.30;;;11.60;99.90;;;;;;5068960;28;20459;-88
2022/04/06 00:46:45;;;;;;;5.90;4.90;;;11.70;99.90;;;;;;5071564;28;20465;-88
2022/04/06 00:49:15;;;;;;;7.37;5.37;;;11.70;99.90;;;;;;5076225;28;20535;-86
2022/04/06 00:51:44;;;;;;;5.83;4.70;;;11.80;99.90;;;;;;5066813;28;20443;-88
2022/04/06 00:54:14;;;;;;;6.90;5.33;;;11.80;99.90;;;;;;5064321;28;20449;-88
2022/04/06 00:56:43;;;;;;;6.80;4.77;;;11.80;99.90;;;;;;5064620;28;20488;-86
2022/04/06 00:59:10;;;;;;;7.00;5.17;;;11.80;99.90;;;;;;5062796;28;20448;-88
2022/04/06 01:01:37;;;;;;;7.37;5.10;;;11.80;99.90;;;;;;5062590;28;20444;-87
2022/04/06 01:04:04;;;;;;;6.70;4.90;;;11.80;99.90;;;;;;5061688;28;20472;-87
2022/04/06 01:06:32;;;;;;;7.27;4.67;;;11.90;99.90;;;;;;5063209;28;20519;-89
2022/04/06 01:08:59;;;;;;;7.30;5.53;;;11.90;99.90;;;;;;5068208;28;20419;-87
2022/04/06 01:11:26;;;;;;;7.80;5.20;;;11.80;99.90;;;;;;5076452;28;20467;-86
2022/04/06 01:13:55;;;;;;;6.53;4.80;;;11.80;99.90;;;;;;5072748;28;20448;-87
2022/04/06 01:16:22;;;;;;;6.83;5.40;;;11.80;99.90;;;;;;5068251;28;20457;-87
2022/04/06 01:18:49;;;;;;;6.07;4.77;;;11.80;99.90;;;;;;5077120;28;20444;-86
2022/04/06 01:21:16;;;;;;;7.20;5.33;;;11.80;99.90;;;;;;5068832;28;20941;-87
2022/04/06 01:23:45;;;;;;;7.40;5.60;;;11.80;99.90;;;;;;5063964;28;20433;-87
2022/04/06 01:26:14;;;;;;;7.37;5.40;;;11.80;99.90;;;;;;5063175;28;20479;-88
2022/04/06 01:28:42;;;;;;;7.83;5.40;;;11.80;99.90;;;;;;5065623;28;20528;-87
2022/04/06 01:31:10;;;;;;;7.07;5.27;;;11.80;99.90;;;;;;5074690;28;20453;-88
2022/04/06 01:33:37;;;;;;;6.00;4.63;;;11.80;99.90;;;;;;5074473;28;20441;-88
2022/04/06 01:36:05;;;;;;;9.13;5.03;;;11.80;99.90;;;;;;5070609;28;20473;-89
2022/04/06 01:38:32;;;;;;;7.00;4.90;;;11.80;99.90;;;;;;5063061;28;20514;-88
2022/04/06 01:41:00;;;;;;;6.20;4.80;;;11.80;99.90;;;;;;5062855;28;20456;-86
2022/04/06 01:43:27;;;;;;;8.10;5.20;;;11.70;99.90;;;;;;5063597;28;20491;-86
2022/04/06 01:45:55;;;;;;;6.77;5.13;;;11.90;99.90;;;;;;5057650;28;20479;-86
2022/04/06 01:48:22;;;;;;;7.37;5.03;;;11.80;99.90;;;;;;5056204;28;20942;-87
2022/04/06 01:53:33;;;;;;;6.27;4.60;;;11.90;99.90;;;;;;5058087;28;20471;-86
2022/04/06 01:56:01;;;;;;;7.07;4.63;;;11.80;99.90;;;;;;5062158;28;20461;-87
2022/04/06 01:58:29;;;;;;;6.93;5.07;;;11.80;99.90;;;;;;5063425;28;21066;-87
2022/04/06 02:00:56;;;;;;;7.10;5.00;;;11.70;99.90;;;;;;5063265;28;20452;-88
2022/04/06 02:03:23;;;;;;;6.83;4.63;;;11.80;99.90;;;;;;5073189;28;20456;-88
2022/04/06 02:05:52;;;;;;;7.60;4.80;;;11.80;99.90;;;;;;5073937;28;20456;-87
2022/04/06 02:08:19;;;;;;;10.53;4.90;;;11.80;99.90;;;;;;5072505;28;20455;-87
2022/04/06 02:10:46;;;;;;;7.20;5.03;;;11.80;99.90;;;;;;5069924;28;20436;-87
2022/04/06 02:13:14;;;;;;;6.50;5.10;;;11.90;99.90;;;;;;5065144;28;20428;-87
2022/04/06 02:15:41;;;;;;;6.63;4.70;;;12.00;99.90;;;;;;5068982;28;20468;-87
2022/04/06 02:18:09;;;;;;;6.83;4.80;;;11.90;99.90;;;;;;5069928;28;20477;-88
2022/04/06 02:20:36;;;;;;;6.93;4.67;;;11.90;99.90;;;;;;5070852;28;20738;-87
2022/04/06 02:23:03;;;;;;;7.20;5.33;;;11.90;99.90;;;;;;5074172;28;20453;-86
2022/04/06 02:25:30;;;;;;;7.37;5.47;;;11.80;99.90;;;;;;5078654;28;20476;-87
2022/04/06 02:27:57;;;;;;;8.97;4.90;;;11.90;99.90;;;;;;5073974;28;20439;-88
2022/04/06 02:30:25;;;;;;;6.97;5.00;;;11.80;99.90;;;;;;5074932;28;20456;-85
2022/04/06 02:32:52;;;;;;;8.73;5.40;;;11.80;99.90;;;;;;5065792;28;20445;-87
2022/04/06 02:35:20;;;;;;;7.70;5.00;;;11.80;99.90;;;;;;5067816;28;20431;-88
2022/04/06 02:37:47;;;;;;;7.10;5.20;;;11.90;99.90;;;;;;5072771;28;20949;-88
2022/04/06 02:40:15;;;;;;;10.43;5.90;;;11.90;99.90;;;;;;5076643;28;20484;-88
2022/04/06 02:42:43;;;;;;;7.43;5.53;;;11.90;99.90;;;;;;5078053;28;20475;-88
2022/04/06 02:45:11;;;;;;;7.20;4.70;;;11.80;99.90;;;;;;5078100;28;20476;-88
2022/04/06 02:47:39;;;;;;;7.20;5.27;;;11.90;99.90;;;;;;5073259;28;20498;-88
2022/04/06 02:50:08;;;;;;;5.80;4.83;;;11.80;99.90;;;;;;5066640;28;20514;-87
2022/04/06 02:52:35;;;;;;;6.80;5.20;;;11.80;99.90;;;;;;5066249;28;20484;-86
2022/04/06 02:55:02;;;;;;;8.80;5.60;;;11.80;99.90;;;;;;5065263;28;20956;-86
2022/04/06 02:57:29;;;;;;;7.47;5.37;;;11.70;99.90;;;;;;5065016;28;20484;-86
2022/04/06 02:59:56;;;;;;;7.73;5.60;;;11.70;99.90;;;;;;5063341;28;20524;-88
2022/04/06 03:02:23;;;;;;;7.53;5.50;;;11.70;99.90;;;;;;5062429;28;20503;-87
2022/04/06 03:04:51;;;;;;;6.53;4.87;;;11.80;99.90;;;;;;5062987;28;20519;-87
2022/04/06 03:07:19;;;;;;;7.50;5.97;;;11.80;99.90;;;;;;5062602;28;20441;-88
2022/04/06 03:09:46;;;;;;;6.70;5.30;;;11.80;99.90;;;;;;5062061;28;20491;-87
2022/04/06 03:12:14;;;;;;;9.17;5.20;;;11.80;99.90;;;;;;5063634;28;20419;-88
2022/04/06 03:14:41;;;;;;;6.80;5.17;;;11.80;99.90;;;;;;5063658;28;20840;-88
2022/04/06 03:17:08;;;;;;;10.00;6.13;;;11.80;99.90;;;;;;5063415;28;20488;-88
2022/04/06 03:19:35;;;;;;;6.90;5.37;;;11.70;99.90;;;;;;5063878;28;20853;-87
2022/04/06 03:22:04;;;;;;;7.23;5.23;;;11.80;99.90;;;;;;5069585;28;20456;-88
2022/04/06 03:24:31;;;;;;;7.00;5.07;;;11.70;99.90;;;;;;5074581;28;20477;-86
2022/04/06 03:26:58;;;;;;;8.07;5.83;;;11.70;99.90;;;;;;5067046;28;20428;-86
2022/04/06 03:29:25;;;;;;;7.87;5.87;;;11.70;99.90;;;;;;5072351;28;20448;-88
2022/04/06 03:31:54;;;;;;;9.10;5.20;;;11.70;99.90;;;;;;5073952;28;20425;-87
2022/04/06 03:34:21;;;;;;;9.23;5.40;;;11.70;99.90;;;;;;5068702;28;20809;-87
2022/04/06 03:36:48;;;;;;;7.80;5.07;;;11.70;99.90;;;;;;5069263;28;20779;-88
2022/04/06 03:39:16;;;;;;;7.30;4.60;;;11.70;99.90;;;;;;5072848;28;20519;-85
2022/04/06 03:41:43;;;;;;;6.97;4.90;;;11.80;99.90;;;;;;5066292;28;20448;-87
2022/04/06 03:44:10;;;;;;;7.90;5.97;;;11.60;99.90;;;;;;5066972;28;20445;-84
2022/04/06 03:46:37;;;;;;;7.33;5.53;;;11.70;99.90;;;;;;5078574;28;20446;-84
2022/04/06 03:49:04;;;;;;;6.93;5.37;;;11.70;99.90;;;;;;5077538;28;20495;-88
2022/04/06 03:51:31;;;;;;;6.97;5.30;;;11.70;99.90;;;;;;5071789;28;20505;-86
2022/04/06 03:53:58;;;;;;;8.53;5.43;;;11.80;99.90;;;;;;5070556;28;20437;-86
2022/04/06 03:56:28;;;;;;;6.90;5.00;;;11.80;99.90;;;;;;5069230;28;20447;-87
2022/04/06 03:58:57;;;;;;;7.73;5.57;;;11.70;99.90;;;;;;5063062;28;20478;-88
2022/04/06 04:01:24;;;;;;;9.13;5.67;;;11.70;99.90;;;;;;5061368;28;20507;-87
2022/04/06 04:03:51;;;;;;;8.03;5.77;;;11.70;99.90;;;;;;5060596;28;20769;-87
2022/04/06 04:06:19;;;;;;;6.60;5.17;;;11.70;99.90;;;;;;5072583;28;20492;-86
2022/04/06 04:08:46;;;;;;;8.07;6.40;;;11.70;99.90;;;;;;5072183;28;20518;-88
2022/04/06 04:11:13;;;;;;;7.00;5.30;;;11.70;99.90;;;;;;5063361;28;20809;-88
2022/04/06 04:13:44;;;;;;;7.70;5.80;;;11.70;99.90;;;;;;5072986;28;20463;-86
2022/04/06 04:16:11;;;;;;;8.27;5.63;;;11.70;99.90;;;;;;5065278;28;20526;-88
2022/04/06 04:18:40;;;;;;;6.50;5.13;;;11.70;99.90;;;;;;5061684;28;20498;-87
2022/04/06 04:23:58;;;;;;;10.40;5.70;;;11.80;99.90;;;;;;5046006;28;20945;-87
2022/04/06 05:09:56;;;;;;;;;;;;;;;;;;;;;
2022/04/06 10:27:21;;;;;;;4.60;1.70;;;15.30;99.50;;;;;;4959747;22;20571;-86
2022/04/06 10:32:59;;;;;;;2.63;0.87;;;15.40;99.00;;;;;;5047435;28;20471;-87
2022/04/06 10:39:05;;;;;;;3.20;1.33;;;15.80;98.50;;;;;;5036610;28;20496;-86
2022/04/06 10:41:38;;;;;;;2.40;0.80;;;15.90;98.40;;;;;;4938789;29;20550;-86
2022/04/06 10:44:08;;;;;;;3.00;1.30;;;16.10;97.40;;;;;;5039118;28;20821;-88
2022/04/06 10:46:40;;;;;;;2.73;0.77;;;16.10;97.10;;;;;;5045294;28;20915;-85
2022/04/06 10:49:17;;;;;;;2.97;0.80;;;16.20;96.80;;;;;;5050611;28;20474;-87
2022/04/06 10:51:56;;;;;;;2.73;0.60;;;16.00;96.70;;;;;;5054297;28;20782;-86
2022/04/06 10:54:44;;;;;;;5.03;0.90;;;16.10;96.60;;;;;;5051473;28;20456;-85
2022/04/06 10:57:18;;;;;;;2.77;0.60;;;15.90;96.80;;;;;;5048965;28;20769;-89
2022/04/06 11:00:18;;;;;;;3.97;1.00;;;15.90;96.90;;;;;;5046827;28;20461;-86
2022/04/06 11:02:53;;;;;;;3.17;0.87;;;15.90;97.10;;;;;;5044468;28;20404;-86
2022/04/06 11:05:46;;;;;;;2.60;0.80;;;15.90;97.00;;;;;;5043918;28;20594;-86
2022/04/06 11:11:45;;;;;;;5.43;1.13;;;15.80;97.20;;;;;;5057807;28;20396;-87
2022/04/06 11:14:29;;;;;;;2.70;1.00;;;15.90;96.90;;;;;;5049466;28;20503;-87
2022/04/06 11:17:00;;;;;;;2.60;1.00;;;16.20;96.30;;;;;;5045477;28;20526;-87
2022/04/06 11:19:33;;;;;;;2.30;0.70;;;16.30;96.10;;;;;;5046190;28;20535;-86
2022/04/06 11:22:04;;;;;;;3.43;1.13;;;16.40;96.30;;;;;;5048178;28;20456;-88
2022/04/06 11:24:38;;;;;;;4.43;2.27;;;16.30;96.10;;;;;;5046988;28;20428;-87
2022/04/06 11:27:09;;;;;;;3.83;1.20;;;16.40;96.20;;;;;;5049512;28;20432;-88
2022/04/06 11:29:38;;;;;;;3.20;1.23;;;16.50;95.30;;;;;;5055932;28;20426;-87
2022/04/06 11:34:48;;;;;;;2.80;1.20;;;16.60;94.90;;;;;;5044905;28;20490;-88
2022/04/06 11:37:17;;;;;;;2.57;0.70;;;16.70;94.70;;;;;;5044168;28;20458;-87
2022/04/06 11:39:47;;;;;;;3.90;1.10;;;16.60;94.60;;;;;;5043291;28;20488;-86
2022/04/06 11:42:18;;;;;;;4.07;1.07;;;16.60;94.70;;;;;;5044171;28;20484;-86
2022/04/06 11:44:45;;;;;;;3.53;1.07;;;16.70;94.70;;;;;;5043842;28;20409;-88
2022/04/06 11:47:23;;;;;;;2.47;0.70;;;16.80;94.40;;;;;;5042520;28;20463;-87
2022/04/06 11:49:51;;;;;;;2.53;0.90;;;16.80;94.10;;;;;;5043813;28;20420;-86
2022/04/06 11:52:20;;;;;;;2.37;0.80;;;16.80;94.50;;;;;;5047465;28;20428;-86
2022/04/06 11:54:52;;;;;;;2.47;0.80;;;16.70;94.90;;;;;;5047770;28;20461;-86
2022/04/06 11:57:35;;;;;;;5.00;1.30;;;16.70;94.90;;;;;;5049747;28;20506;-86
2022/04/06 12:00:08;;;;;;;2.60;0.97;;;16.80;95.10;;;;;;5048767;28;20437;-88
2022/04/06 12:02:55;;;;;;;3.20;1.03;;;16.70;94.60;;;;;;5043532;28;20435;-89
2022/04/06 12:05:24;;;;;;;2.57;0.80;;;16.60;95.00;;;;;;5045591;28;20523;-87
2022/04/06 12:08:13;;;;;;;2.40;0.70;;;16.70;95.30;;;;;;5050463;28;20572;-86
2022/04/06 12:10:49;;;;;;;2.70;0.90;;;16.60;95.00;;;;;;5052999;28;20401;-87
2022/04/06 12:13:24;;;;;;;2.70;0.90;;;16.70;95.00;;;;;;5056400;28;20480;-87
2022/04/06 12:15:59;;;;;;;2.63;0.77;;;16.70;94.50;;;;;;5051194;28;20450;-86
2022/04/06 12:18:31;;;;;;;2.90;1.00;;;16.80;93.30;;;;;;5036041;28;20455;-86
2022/04/06 12:20:59;;;;;;;4.70;1.60;;;16.80;92.40;;;;;;5044386;28;20432;-86
2022/04/06 12:23:38;;;;;;;4.50;1.37;;;16.90;91.90;;;;;;5042721;28;20945;-87
2022/04/06 12:26:21;;;;;;;3.60;0.80;;;17.00;91.60;;;;;;5043939;28;20450;-86
2022/04/06 12:28:58;;;;;;;3.00;0.93;;;17.00;91.80;;;;;;5042228;28;20478;-85
2022/04/06 12:31:35;;;;;;;2.63;0.63;;;17.10;91.50;;;;;;5041743;28;20469;-86
2022/04/06 12:34:05;;;;;;;3.03;0.73;;;17.20;91.20;;;;;;5043099;28;20464;-86
2022/04/06 12:36:33;;;;;;;3.13;1.10;;;17.00;91.80;;;;;;5043052;28;20432;-86
2022/04/06 12:39:08;;;;;;;2.50;0.80;;;17.00;91.90;;;;;;5045331;28;20514;-88
2022/04/06 12:41:52;;;;;;;2.50;0.73;;;17.00;91.80;;;;;;5046182;28;20458;-87
2022/04/06 12:44:22;;;;;;;2.30;0.60;;;17.00;91.20;;;;;;5041761;28;20451;-88
2022/04/06 12:46:53;;;;;;;2.87;0.70;;;16.90;90.70;;;;;;5041210;28;20424;-87
2022/04/06 12:49:45;;;;;;;2.53;0.80;;;17.00;91.20;;;;;;5045496;28;20465;-88
2022/04/06 12:55:47;;;;;;;2.97;1.07;;;17.20;91.00;;;;;;4945358;28;20434;-88
2022/04/06 13:01:20;;;;;;;2.60;0.90;;;17.40;90.40;;;;;;5042656;28;20452;-88
2022/04/06 13:03:59;;;;;;;2.50;0.80;;;17.50;90.40;;;;;;5050541;28;20451;-88
2022/04/06 13:06:32;;;;;;;2.70;0.70;;;17.50;90.20;;;;;;5042919;28;20443;-88
2022/04/06 13:09:11;;;;;;;2.80;0.80;;;17.50;90.20;;;;;;5043095;28;20448;-88
2022/04/06 13:11:49;;;;;;;2.77;0.83;;;17.50;89.80;;;;;;5041247;28;20424;-88
2022/04/06 13:14:23;;;;;;;2.30;0.70;;;17.70;88.30;;;;;;5041514;28;20849;-87
2022/04/06 13:16:54;;;;;;;2.93;0.90;;;17.70;88.60;;;;;;5040245;28;20430;-88
2022/04/06 13:19:21;;;;;;;2.50;0.90;;;17.80;88.50;;;;;;5042906;28;20440;-88
2022/04/06 13:21:52;;;;;;;2.30;0.60;;;17.60;88.30;;;;;;5044703;28;20455;-88
2022/04/06 13:24:23;;;;;;;2.30;0.60;;;17.50;89.60;;;;;;5039697;28;20459;-88
2022/04/06 13:26:52;;;;;;;3.40;1.03;;;17.20;90.30;;;;;;5040229;28;20503;-87
2022/04/06 13:29:19;;;;;;;2.43;0.80;;;17.20;91.00;;;;;;5040769;28;20468;-86
2022/04/06 13:31:51;;;;;;;2.50;0.80;;;17.40;90.60;;;;;;5043767;28;20535;-87
2022/04/06 13:34:20;;;;;;;2.60;0.80;;;17.50;90.10;;;;;;5044681;28;20416;-86
2022/04/06 13:36:56;;;;;;;2.27;0.70;;;17.70;89.20;;;;;;5046123;28;20442;-87
2022/04/06 13:39:28;;;;;;;2.50;0.80;;;17.70;89.30;;;;;;5036873;28;20982;-86
2022/04/06 13:42:03;;;;;;;3.53;1.07;;;17.30;90.30;;;;;;5047231;28;20912;-88
2022/04/06 13:44:35;;;;;;;3.90;1.17;;;17.40;90.60;;;;;;5035571;28;20431;-87
2022/04/06 13:47:10;;;;;;;2.30;0.77;;;17.40;90.60;;;;;;5042727;28;20460;-88
2022/04/06 13:49:38;;;;;;;2.40;0.77;;;17.50;90.30;;;;;;5042805;28;20504;-87
2022/04/06 13:52:11;;;;;;;3.57;0.80;;;17.50;90.30;;;;;;5042923;28;20416;-87
2022/04/06 13:54:40;;;;;;;2.50;0.80;;;17.70;90.10;;;;;;5044958;28;20537;-87
2022/04/06 13:57:09;;;;;;;2.30;0.60;;;17.70;90.30;;;;;;5043991;28;20477;-88
2022/04/06 13:59:37;;;;;;;2.40;0.70;;;17.70;90.30;;;;;;5041567;28;20583;-87
2022/04/06 14:02:04;;;;;;;2.80;1.10;;;17.70;90.30;;;;;;5041453;28;20507;-88
2022/04/06 14:04:42;;;;;;;;;;;;;;;;;;;;;
2022/04/06 14:07:11;;;;;;;3.23;1.10;;;17.70;89.70;;;;;;5040809;28;20519;-88
2022/04/06 14:09:38;;;;;;;2.53;0.70;;;17.50;89.90;;;;;;5041202;28;20803;-88
2022/04/06 14:12:07;;;;;;;2.37;0.63;;;17.50;89.50;;;;;;5040802;28;20449;-88
2022/04/06 14:14:41;;;;;;;2.67;0.80;;;17.50;90.00;;;;;;5047892;28;20418;-86
2022/04/06 14:17:43;;;;;;;;;;;;;;;;;;;;;
2022/04/06 14:23:11;;;;;;;2.50;0.87;;;17.60;90.30;;;;;;5053960;28;20470;-88
2022/04/06 14:29:11;;;;;;;2.77;0.70;;;17.70;89.20;;;;;;5042956;28;20456;-87
2022/04/06 14:34:39;;;;;;;2.60;0.93;;;18.00;88.70;;;;;;5010157;28;20536;-85
2022/04/06 14:37:39;;;;;;;2.40;0.80;;;18.00;89.00;;;;;;5043516;28;20528;-87
2022/04/06 14:40:22;;;;;;;3.23;0.97;;;18.00;88.60;;;;;;4981809;28;20495;-87
2022/04/06 14:46:21;;;;;;;2.77;1.10;;;17.70;90.20;;;;;;5029660;28;20462;-86
2022/04/06 14:49:45;;;;;;;3.27;1.00;;;17.80;90.50;;;;;;5050622;28;20467;-86
2022/04/06 14:52:22;;;;;;;3.13;1.47;;;17.70;90.60;;;;;;5051282;28;20460;-86
2022/04/06 14:54:54;;;;;;;2.80;1.17;;;17.70;91.10;;;;;;5045306;28;20461;-87
2022/04/06 14:57:52;;;;;;;4.10;1.00;;;17.70;91.20;;;;;;5046577;28;20651;-86
2022/04/06 15:00:48;;;;;;;2.90;1.00;;;17.70;91.30;;;;;;5045304;28;20549;-87
2022/04/06 15:06:37;;;;;;;4.93;1.33;;;17.50;91.90;;;;;;5046208;28;20468;-87
2022/04/06 15:09:18;;;;;;;3.53;1.13;;;17.50;92.10;;;;;;5073419;22;20471;-87
2022/04/06 15:11:58;;;;;;;2.77;1.10;;;17.70;92.20;;;;;;5052567;28;20456;-86
2022/04/06 15:14:55;;;;;;;4.83;1.20;;;17.90;92.10;;;;;;5055695;28;20507;-87
2022/04/06 15:18:04;;;;;;;3.17;1.20;;;18.10;91.70;;;;;;5054853;28;20525;-86
2022/04/06 15:20:57;;;;;;;3.10;1.20;;;18.40;91.30;;;;;;5033150;28;20456;-86
2022/04/06 15:23:58;;;;;;;3.20;0.90;;;18.70;90.80;;;;;;5035186;28;20436;-87
2022/04/06 15:29:39;;;;;;;2.80;1.00;;;18.70;90.30;;;;;;5046516;28;20512;-88
2022/04/06 15:32:11;;;;;;;2.93;1.00;;;18.50;90.90;;;;;;5047273;28;20415;-87
2022/04/06 15:38:04;;;;;;;4.73;1.20;;;18.70;90.50;;;;;;5057112;28;20427;-86
2022/04/06 15:41:13;;;;;;;4.13;1.17;;;18.40;90.70;;;;;;5046511;28;20480;-86
2022/04/06 15:47:20;;;;;;;3.40;1.53;;;18.10;91.50;;;;;;5035724;28;20433;-84
2022/04/06 15:50:19;;;;;;;2.80;0.90;;;18.00;91.70;;;;;;5035272;28;20508;-87
2022/04/06 15:53:01;;;;;;;3.40;1.40;;;17.90;92.00;;;;;;5043842;28;20428;-86
2022/04/06 15:59:21;;;;;;;2.73;0.80;;;17.70;92.60;;;;;;5041183;28;20784;-88
2022/04/06 16:08:19;;;;;;;3.40;0.83;;;17.60;93.20;;;;;;5035324;28;20456;-87
2022/04/06 16:11:17;;;;;;;2.87;1.23;;;17.80;92.90;;;;;;5045834;28;20385;-88
2022/04/06 16:20:45;;;;;;;3.10;1.00;;;17.40;93.40;;;;;;4979784;28;20470;-87
2022/04/06 16:26:20;;;;;;;5.40;1.77;;;17.30;93.70;;;;;;5165060;27;20521;-89
2022/04/06 22:55:55;;;;;;;4.20;2.47;;;12.50;99.90;;;;;;5044256;28;20480;-88
2022/04/06 22:58:22;;;;;;;3.90;2.40;;;12.50;99.90;;;;;;5042602;28;20430;-87
2022/04/06 23:00:49;;;;;;;4.40;2.40;;;12.50;99.90;;;;;;5045685;28;20472;-88
2022/04/06 23:03:16;;;;;;;4.73;2.60;;;12.50;99.90;;;;;;5045606;28;20457;-88
2022/04/06 23:05:43;;;;;;;4.57;2.80;;;12.50;99.90;;;;;;5045771;28;20456;-87
2022/04/06 23:08:13;;;;;;;6.00;2.70;;;12.50;99.90;;;;;;5044417;28;20447;-87
2022/04/06 23:10:40;;;;;;;5.23;2.40;;;12.50;99.90;;;;;;5049802;28;20496;-87
2022/04/06 23:13:09;;;;;;;5.00;2.57;;;12.50;99.90;;;;;;5058369;28;20499;-87
2022/04/06 23:15:36;;;;;;;4.07;2.33;;;12.50;99.90;;;;;;5049876;28;20448;-86
2022/04/06 23:18:03;;;;;;;4.20;2.50;;;12.50;99.90;;;;;;5039555;28;20461;-85
2022/04/06 23:20:29;;;;;;;5.80;2.40;;;12.60;99.90;;;;;;5038531;28;20458;-85
2022/04/06 23:22:57;;;;;;;4.10;1.97;;;12.60;99.90;;;;;;5039897;28;20532;-85
2022/04/06 23:25:24;;;;;;;4.30;2.10;;;12.60;99.90;;;;;;5055971;28;20444;-87
2022/04/06 23:27:50;;;;;;;5.10;2.23;;;12.60;99.90;;;;;;5054749;28;20453;-88
2022/04/06 23:30:22;;;;;;;4.80;2.20;;;12.50;99.90;;;;;;5048595;28;20475;-88
2022/04/06 23:32:49;;;;;;;4.00;2.13;;;12.50;99.90;;;;;;5047227;28;20450;-88
2022/04/06 23:35:16;;;;;;;3.93;2.07;;;12.50;99.90;;;;;;5044375;28;20480;-88
2022/04/06 23:37:43;;;;;;;4.80;2.90;;;12.40;99.90;;;;;;5044567;28;20961;-88
2022/04/06 23:40:11;;;;;;;6.10;3.10;;;12.40;99.90;;;;;;5044081;28;20439;-87
2022/04/06 23:42:40;;;;;;;4.13;1.90;;;12.40;99.90;;;;;;5050801;28;20449;-87
2022/04/06 23:45:08;;;;;;;3.97;1.90;;;12.40;99.90;;;;;;5055779;28;20493;-86
2022/04/06 23:47:37;;;;;;;4.53;1.90;;;12.40;99.90;;;;;;5054867;28;20455;-87
2022/04/06 23:50:04;;;;;;;3.67;1.90;;;12.40;99.90;;;;;;5054989;28;20442;-88
2022/04/06 23:52:31;;;;;;;3.90;1.83;;;12.30;99.90;;;;;;5050664;28;20468;-85
2022/04/06 23:55:01;;;;;;;3.70;1.97;;;12.40;99.90;;;;;;5045710;28;20461;-86
2022/04/06 23:57:28;;;;;;;3.90;2.00;;;12.40;99.90;;;;;;5041977;28;20488;-87
2022/04/06 23:59:56;;;;;;;3.40;1.90;;;12.40;99.90;;;;;;5044793;28;20479;-86
